Weather History for KIKK - January, 2013

Change the Weather History Date:

Tuesday, January 15, 2013

  Actual Average Record
Temperature  
Mean Temperature 20 °F -  
Max Temperature 29 °F 29 °F 44 °F (1980)
Min Temperature 11 °F 12 °F -18 °F (1979)
Degree Days  
Heating Degree Days 45    
Moisture  
Dew Point 16 °F    
Average Humidity 83    
Maximum Humidity 95    
Minimum Humidity 63    
Precipitation  
Precipitation 0.01 in - - ()
Sea Level Pressure  
Sea Level Pressure 30.33 in    
Wind  
Wind Speed 1 mph (East)    
Max Wind Speed 6 mph    
Max Gust Speed -    
Visibility 10 miles    
Events      
Averages and records for this station are not official NWS values.
T = Trace of Precipitation, MM = Missing Value Source: NWS Daily Summary

Daily Weather History Graph

Daily Weather History Graph

Search for Another Location

Airport or City:

Trip Planner

Search our weather history database for the weather conditions in past years. The results will help you decide how hot, cold, wet, or windy it might be!

Date:

Astronomy

Jan. 15, 2013 Rise Set
Actual Time 7:14 AM CST 4:48 PM CST
Civil Twilight 6:43 AM CST 5:18 PM CST
Nautical Twilight 6:09 AM CST 5:52 PM CST
Astronomical Twilight 5:37 AM CST 6:25 PM CST
Moon 9:17 AM CST (1/15) 9:40 PM CST (1/15)
Length of Visible Light 10h 34m
Length of Day
9h 33m
Waxing Crescent, 19% of the Moon is Illuminated
Jan 15
Waxing Crescent
Jan 18
First Quarter
Jan 26
Full
Feb 3
Last Quarter
Feb 10
New

Hourly Weather History & Observations

Time (CST) Temp. Windchill Dew Point Humidity Pressure Visibility Wind Dir Wind Speed Gust Speed Precip Events Conditions
12:15 AM 13.5 °F - 11.1 °F 90% 30.43 in 10.0 mi Calm Calm - N/A   Clear
12:35 AM 14.0 °F - 12.0 °F 92% 30.43 in 10.0 mi Calm Calm - N/A   Clear
12:55 AM 15.1 °F - 12.4 °F 89% 30.42 in 10.0 mi Calm Calm - N/A   Clear
1:15 AM 13.1 °F - 10.8 °F 90% 30.42 in 10.0 mi Calm Calm - N/A   Clear
1:35 AM 12.7 °F - 10.4 °F 90% 30.42 in 10.0 mi Calm Calm - N/A   Clear
1:55 AM 13.6 °F - 11.5 °F 91% 30.42 in 10.0 mi Calm Calm - N/A   Clear
2:15 AM 14.7 °F - 12.2 °F 90% 30.42 in 10.0 mi Calm Calm - N/A   Clear
2:35 AM 13.6 °F - 10.9 °F 89% 30.43 in 10.0 mi Calm Calm - N/A   Clear
2:55 AM 13.8 °F - 11.1 °F 89% 30.43 in 10.0 mi Calm Calm - N/A   Clear
3:15 AM 14.4 °F 8.6 °F 11.8 °F 90% 30.42 in 10.0 mi SE 3.5 mph - N/A   Clear
3:35 AM 12.4 °F - 9.9 °F 90% 30.42 in 10.0 mi Calm Calm - N/A   Clear
3:55 AM 13.1 °F - 11.1 °F 92% 30.42 in 10.0 mi Calm Calm - N/A   Clear
4:15 AM 12.2 °F - 9.9 °F 90% 30.41 in 10.0 mi Calm Calm - N/A   Clear
4:35 AM 12.2 °F - 10.4 °F 92% 30.40 in 10.0 mi Calm Calm - N/A   Clear
4:55 AM 12.9 °F - 11.8 °F 95% 30.39 in 10.0 mi Calm Calm - N/A   Clear
5:15 AM 13.3 °F - 11.5 °F 93% 30.39 in 10.0 mi Calm Calm - N/A   Clear
5:35 AM 13.8 °F - 12.0 °F 93% 30.39 in 10.0 mi Calm Calm - N/A   Clear
5:55 AM 13.5 °F - 11.7 °F 93% 30.40 in 10.0 mi Calm Calm - N/A   Clear
6:15 AM 12.2 °F - 10.2 °F 92% 30.41 in 10.0 mi Calm Calm - N/A   Clear
6:35 AM 12.6 °F - 10.4 °F 91% 30.41 in 10.0 mi Calm Calm - N/A   Clear
6:55 AM 12.2 °F - 9.7 °F 90% 30.40 in 10.0 mi Calm Calm - N/A   Clear
7:15 AM 11.8 °F - 9.7 °F 91% 30.41 in 10.0 mi Calm Calm - N/A   Clear
7:35 AM 12.2 °F - 9.9 °F 90% 30.42 in 10.0 mi Calm Calm - N/A   Clear
7:55 AM 12.7 °F - 10.8 °F 92% 30.41 in 10.0 mi Calm Calm - N/A   Clear
8:15 AM 15.1 °F - 12.9 °F 91% 30.42 in 10.0 mi Calm Calm - N/A   Clear
8:35 AM 17.1 °F - 14.5 °F 90% 30.44 in 10.0 mi Calm Calm - N/A   Clear
8:55 AM 18.1 °F - 14.4 °F 85% 30.43 in 10.0 mi Calm Calm - N/A   Clear
9:15 AM 19.2 °F - 14.2 °F 81% 30.44 in 10.0 mi Calm Calm - N/A   Clear
9:35 AM 20.3 °F - 14.2 °F 77% 30.44 in 10.0 mi Calm Calm - N/A   Clear
9:55 AM 21.2 °F - 15.3 °F 78% 30.42 in 10.0 mi Calm Calm - N/A   Clear
10:15 AM 22.5 °F - 15.3 °F 74% 30.41 in 10.0 mi Calm Calm - N/A   Clear
10:35 AM 23.5 °F - 17.1 °F 76% 30.39 in 10.0 mi Calm Calm - N/A   Clear
10:55 AM 24.8 °F - 17.6 °F 74% 30.38 in 10.0 mi Calm Calm - N/A   Clear
11:15 AM 25.3 °F - 17.6 °F 72% 30.38 in 10.0 mi Calm Calm - N/A   Clear
11:35 AM 26.8 °F 20.2 °F 18.0 °F 69% 30.37 in 10.0 mi ENE 5.8 mph - 0.01 in   Clear
11:55 AM 27.1 °F 20.7 °F 17.6 °F 67% 30.35 in 10.0 mi ENE 5.8 mph - 0.01 in   Clear
12:15 PM 27.3 °F 20.9 °F 18.3 °F 69% 30.33 in 10.0 mi NE 5.8 mph - N/A   Clear
12:35 PM 27.1 °F 20.7 °F 18.3 °F 69% 30.32 in 10.0 mi ENE 5.8 mph - N/A   Clear
12:55 PM 27.5 °F 21.1 °F 18.9 °F 70% 30.32 in 10.0 mi ENE 5.8 mph - N/A   Clear
1:15 PM 27.9 °F 24.0 °F 19.0 °F 69% 30.30 in 10.0 mi ENE 3.5 mph - N/A   Clear
1:35 PM 28.0 °F 21.7 °F 19.2 °F 70% 30.31 in 10.0 mi ENE 5.8 mph - N/A   Clear
1:55 PM 28.6 °F 22.4 °F 19.2 °F 68% 30.31 in 10.0 mi ENE 5.8 mph - N/A   Clear
2:15 PM 28.9 °F 23.9 °F 19.4 °F 68% 30.30 in 10.0 mi East 4.6 mph - N/A   Clear
2:35 PM 28.9 °F 23.9 °F 19.4 °F 68% 30.29 in 10.0 mi ENE 4.6 mph - N/A   Scattered Clouds
2:55 PM 28.9 °F - 19.2 °F 67% 30.29 in 10.0 mi Calm Calm - N/A   Clear
3:15 PM 28.8 °F - 18.9 °F 67% 30.30 in 10.0 mi Calm Calm - N/A   Clear
3:35 PM 29.1 °F 24.1 °F 18.0 °F 63% 30.31 in 10.0 mi ESE 4.6 mph - N/A   Clear
3:55 PM 29.1 °F 25.4 °F 18.1 °F 64% 30.31 in 10.0 mi SE 3.5 mph - N/A   Clear
4:15 PM 28.6 °F 23.5 °F 18.3 °F 65% 30.29 in 10.0 mi SE 4.6 mph - N/A   Clear
4:35 PM 28.4 °F 23.3 °F 18.5 °F 66% 30.29 in 10.0 mi ESE 4.6 mph - N/A   Clear
4:55 PM 27.5 °F 23.6 °F 18.3 °F 68% 30.29 in 10.0 mi SE 3.5 mph - N/A   Clear
5:15 PM 27.1 °F - 18.5 °F 70% 30.28 in 10.0 mi Calm Calm - N/A   Clear
5:35 PM 25.9 °F - 19.0 °F 75% 30.27 in 10.0 mi Calm Calm - N/A   Clear
5:55 PM 25.0 °F - 19.0 °F 78% 30.26 in 10.0 mi Calm Calm - N/A   Clear
6:15 PM 24.8 °F - 19.6 °F 81% 30.25 in 10.0 mi Calm Calm - N/A   Clear
6:35 PM 25.0 °F - 19.4 °F 79% 30.24 in 10.0 mi Calm Calm - N/A   Clear
6:55 PM 23.4 °F - 20.3 °F 88% 30.22 in 10.0 mi Calm Calm - N/A   Clear
7:15 PM 23.4 °F 18.9 °F 20.1 °F 87% 30.22 in 10.0 mi North 3.5 mph - N/A   Clear
7:35 PM 23.7 °F - 19.9 °F 85% 30.22 in 10.0 mi Calm Calm - N/A   Clear
7:55 PM 23.4 °F 18.9 °F 20.1 °F 87% 30.21 in 10.0 mi North 3.5 mph - N/A   Clear
8:15 PM 23.0 °F - 20.3 °F 89% 30.20 in 10.0 mi Calm Calm - N/A   Clear
8:35 PM 23.0 °F - 20.1 °F 89% 30.19 in 10.0 mi Calm Calm - N/A   Clear
8:55 PM 22.8 °F - 20.3 °F 90% 30.19 in 10.0 mi Calm Calm - N/A   Clear
9:15 PM 22.6 °F - 19.8 °F 89% 30.18 in 10.0 mi Calm Calm - N/A   Clear
9:35 PM 22.5 °F - 19.0 °F 87% 30.17 in 10.0 mi Calm Calm - N/A   Clear
9:55 PM 20.8 °F - 18.5 °F 91% 30.16 in 10.0 mi Calm Calm - N/A   Clear
10:15 PM 20.1 °F - 18.9 °F 95% 30.16 in 10.0 mi Calm Calm - N/A   Clear
10:35 PM 19.9 °F - 18.3 °F 93% 30.16 in 10.0 mi Calm Calm - N/A   Clear
10:55 PM 19.9 °F - 18.3 °F 93% 30.15 in 10.0 mi Calm Calm - N/A   Clear
11:15 PM 19.0 °F - 17.6 °F 94% 30.14 in 10.0 mi Calm Calm - N/A   Clear
11:35 PM 19.2 °F 14.1 °F 17.6 °F 93% 30.12 in 10.0 mi SSE 3.5 mph - N/A   Scattered Clouds
11:55 PM 17.6 °F - 15.8 °F 93% 30.12 in 7.0 mi Calm Calm - N/A   Clear